createdAt,value
2022-11-28T05:01:08.901Z,35.45
2022-11-28T05:04:13.528Z,29.27
2022-11-28T05:07:15.582Z,30.08
2022-11-28T05:10:18.912Z,31.87
2022-11-28T05:13:20.954Z,30.90
2022-11-28T05:16:23.511Z,30.67
2022-11-28T05:19:25.670Z,29.73
2022-11-28T05:22:28.149Z,32.75
2022-11-28T05:25:30.213Z,32.42
2022-11-28T05:28:32.565Z,33.42
2022-11-28T05:31:34.908Z,31.08
2022-11-28T05:34:37.699Z,31.12
2022-11-28T05:37:39.877Z,31.75
2022-11-28T05:40:44.369Z,31.67
2022-11-28T05:43:46.745Z,31.10
2022-11-28T05:46:49.120Z,33.25
2022-11-28T05:49:51.204Z,30.27
2022-11-28T05:52:53.552Z,31.40
2022-11-28T05:55:55.633Z,32.45
2022-11-28T05:58:58.108Z,31.73
2022-11-28T06:02:00.509Z,35.47
2022-11-28T06:05:16.501Z,32.58
2022-11-28T06:08:23.476Z,36.83
2022-11-28T06:11:29.215Z,31.50
2022-11-28T06:14:31.273Z,33.40
2022-11-28T06:17:33.564Z,34.83
2022-11-28T06:20:35.783Z,33.47
2022-11-28T06:23:39.000Z,35.78
2022-11-28T06:26:41.038Z,36.83
2022-11-28T06:29:43.593Z,40.08
2022-11-28T06:32:46.003Z,40.53
2022-11-28T06:35:48.283Z,39.80
2022-11-28T06:38:50.311Z,38.33
2022-11-28T06:41:52.596Z,37.28
2022-11-28T06:44:54.615Z,37.22
2022-11-28T06:47:56.944Z,36.55
2022-11-28T06:51:04.096Z,36.42
2022-11-28T06:54:07.410Z,39.28
2022-11-28T06:57:09.628Z,43.47
2022-11-28T07:00:12.788Z,34.72
2022-11-28T07:03:14.827Z,36.55
2022-11-28T07:06:19.137Z,38.55
2022-11-28T07:09:21.160Z,40.42
2022-11-28T07:12:23.479Z,38.95
2022-11-28T07:15:26.460Z,36.70
2022-11-28T07:18:28.780Z,34.25
2022-11-28T07:21:31.789Z,37.17
2022-11-28T07:24:34.170Z,33.70
2022-11-28T07:27:36.380Z,39.63
2022-11-28T07:30:38.789Z,36.38
2022-11-28T07:33:42.973Z,36.15
2022-11-28T07:36:45.371Z,34.50
2022-11-28T07:39:47.667Z,35.53
2022-11-28T07:42:50.120Z,36.70
2022-11-28T07:46:00.937Z,37.22
2022-11-28T07:49:04.305Z,37.30
2022-11-28T07:52:06.596Z,36.55
2022-11-28T07:55:09.018Z,35.20
2022-11-28T07:58:11.264Z,33.30
2022-11-28T08:01:17.622Z,32.42
2022-11-28T08:04:19.921Z,34.63
2022-11-28T08:07:22.107Z,32.08
2022-11-28T08:10:24.708Z,32.50
2022-11-28T08:13:27.491Z,33.63
2022-11-28T08:16:30.271Z,28.33
2022-11-28T08:19:35.359Z,30.90
2022-11-28T08:22:38.176Z,30.77
2022-11-28T08:25:40.321Z,32.92
2022-11-28T08:28:43.394Z,31.05
2022-11-28T08:31:46.108Z,28.45
2022-11-28T08:34:48.456Z,29.98
2022-11-28T08:37:50.503Z,27.25
2022-11-28T08:41:01.002Z,27.87
2022-11-28T08:44:03.151Z,25.70
2022-11-28T08:47:09.483Z,25.62
2022-11-28T08:50:11.562Z,25.58
2022-11-28T08:53:18.524Z,27.00
2022-11-28T08:56:20.865Z,26.05
2022-11-28T08:59:23.271Z,22.55
2022-11-28T09:02:26.237Z,18.52
2022-11-28T09:05:29.336Z,19.42
2022-11-28T09:08:31.381Z,22.02
2022-11-28T09:11:33.667Z,23.80
2022-11-28T09:14:35.734Z,26.05
2022-11-28T09:17:38.108Z,24.98
2022-11-28T09:20:40.675Z,27.55
2022-11-28T09:23:44.740Z,28.90
2022-11-28T09:26:47.039Z,24.58
2022-11-28T09:29:49.360Z,22.85
2022-11-28T09:32:51.512Z,25.75
2022-11-28T09:35:55.577Z,28.42
2022-11-28T09:39:00.409Z,26.87
2022-11-28T09:42:13.393Z,29.35
2022-11-28T09:45:20.015Z,23.92
2022-11-28T09:48:44.133Z,25.12
2022-11-28T09:51:52.945Z,27.55
2022-11-28T09:55:17.020Z,27.25
2022-11-28T09:58:57.789Z,25.85
2022-11-28T10:02:09.288Z,23.67
2022-11-28T10:05:27.111Z,24.05
2022-11-28T10:08:47.123Z,25.45
2022-11-28T10:12:06.924Z,22.60
2022-11-28T10:15:20.733Z,26.77
2022-11-28T10:18:22.959Z,23.87
2022-11-28T10:21:35.263Z,25.50
2022-11-28T10:24:44.631Z,26.77
2022-11-28T10:27:48.069Z,25.98
2022-11-28T10:31:03.970Z,32.33
2022-11-28T10:34:16.789Z,43.65
2022-11-28T10:37:25.142Z,28.60
2022-11-28T10:40:51.592Z,27.83
2022-11-28T10:44:21.341Z,30.67
2022-11-28T10:47:48.148Z,29.00
2022-11-28T10:51:03.421Z,27.80
2022-11-28T10:54:17.607Z,28.20
2022-11-28T10:57:44.706Z,29.67
2022-11-28T11:00:50.009Z,29.55
2022-11-28T11:03:52.457Z,29.43
2022-11-28T11:07:20.968Z,30.48
2022-11-28T11:10:49.466Z,33.30
2022-11-28T11:14:02.248Z,34.83
2022-11-28T11:17:04.576Z,29.58
2022-11-28T11:20:27.754Z,34.30
2022-11-28T11:23:32.806Z,30.33
2022-11-28T11:26:42.145Z,36.15
2022-11-28T11:29:46.063Z,32.47
2022-11-28T11:32:51.676Z,31.75
2022-11-28T11:35:54.265Z,30.88
2022-11-28T11:39:15.501Z,40.85
2022-11-28T11:42:26.113Z,34.83
2022-11-28T11:45:39.113Z,34.22
2022-11-28T11:48:44.456Z,35.55
2022-11-28T11:51:56.781Z,32.65
2022-11-28T11:55:15.668Z,35.35
2022-11-28T11:58:25.524Z,34.42
2022-11-28T12:01:30.148Z,35.50
2022-11-28T12:04:47.233Z,29.52
2022-11-28T12:08:12.020Z,35.55
2022-11-28T12:11:21.888Z,33.60
2022-11-28T12:14:31.436Z,34.22
2022-11-28T12:17:58.824Z,30.60
2022-11-28T12:21:19.581Z,32.63
2022-11-28T12:24:33.598Z,31.40
2022-11-28T12:28:05.145Z,34.97
2022-11-28T12:31:23.147Z,33.35
2022-11-28T12:34:34.321Z,34.90
2022-11-28T12:38:13.519Z,35.65
2022-11-28T12:41:32.463Z,34.85
2022-11-28T12:45:15.908Z,34.90
2022-11-28T12:48:36.526Z,34.22
2022-11-28T12:51:48.145Z,35.95
2022-11-28T12:55:05.425Z,40.40
2022-11-28T12:58:19.164Z,43.75
2022-11-28T13:01:34.212Z,39.78
2022-11-28T13:04:46.442Z,33.77
2022-11-28T13:08:08.633Z,33.78
2022-11-28T13:11:31.632Z,33.40
2022-11-28T13:14:52.322Z,34.10
2022-11-28T13:18:32.295Z,36.10
2022-11-28T13:22:01.598Z,35.78
2022-11-28T13:25:52.052Z,31.35
2022-11-28T13:28:59.347Z,39.03
2022-11-28T13:32:17.095Z,34.15
2022-11-28T13:35:20.589Z,37.15
2022-11-28T13:38:48.284Z,34.15
2022-11-28T13:42:28.335Z,32.13
2022-11-28T13:45:34.614Z,31.27
2022-11-28T13:49:06.096Z,33.13
2022-11-28T13:52:35.643Z,30.48
2022-11-28T13:55:40.799Z,33.35
2022-11-28T13:58:52.231Z,31.73
2022-11-28T14:01:59.676Z,32.90
2022-11-28T14:05:03.057Z,34.53
2022-11-28T14:08:07.233Z,36.47
2022-11-28T14:11:42.937Z,30.90
2022-11-28T14:14:55.430Z,31.83
2022-11-28T14:18:55.475Z,37.33
2022-11-28T14:22:27.785Z,35.00
2022-11-28T14:25:41.057Z,31.33
2022-11-28T14:28:44.760Z,33.53
2022-11-28T14:32:13.753Z,32.60
2022-11-28T14:35:49.043Z,33.78
2022-11-28T14:39:15.579Z,34.55
2022-11-28T14:42:58.958Z,35.55
2022-11-28T14:45:50.824Z,35.28
2022-11-28T14:48:58.997Z,37.80
2022-11-28T14:52:30.815Z,39.88
2022-11-28T14:55:28.768Z,32.70
2022-11-28T14:58:31.176Z,38.47
2022-11-28T15:02:02.809Z,34.70
2022-11-28T15:05:24.111Z,39.03
2022-11-28T15:08:40.032Z,36.45
2022-11-28T15:12:11.540Z,34.00
2022-11-28T15:15:16.881Z,45.92
2022-11-28T15:18:21.627Z,37.80
2022-11-28T15:21:23.880Z,38.55
2022-11-28T15:24:37.965Z,40.00
2022-11-28T15:27:40.040Z,35.72
2022-11-28T15:30:49.908Z,40.00
2022-11-28T15:33:52.513Z,39.22
2022-11-28T15:36:58.156Z,40.38
2022-11-28T15:40:04.350Z,39.90
2022-11-28T15:43:12.670Z,42.28
2022-11-28T15:46:30.714Z,40.72
2022-11-28T15:49:38.412Z,40.00
2022-11-28T15:52:40.689Z,42.35
2022-11-28T15:55:44.047Z,45.53
2022-11-28T15:58:47.769Z,41.25
2022-11-28T16:01:53.560Z,43.45
2022-11-28T16:05:07.352Z,38.08
2022-11-28T16:08:23.662Z,48.80
2022-11-28T16:11:30.511Z,42.80
2022-11-28T16:17:40.324Z,43.38
2022-11-28T16:20:43.496Z,38.72
2022-11-28T16:23:45.864Z,42.03
2022-11-28T16:26:56.629Z,35.38
2022-11-28T16:30:00.628Z,40.12
2022-11-28T16:33:23.689Z,44.13
2022-11-28T16:36:38.743Z,39.38
2022-11-28T16:39:41.096Z,55.72
2022-11-28T16:42:52.025Z,41.17
2022-11-28T16:46:00.078Z,40.58
